sensor_id;sensor_type;location;lat;lon;timestamp;pressure;altitude;pressure_sealevel;temperature;humidity
23433;BME280;41331;45.412;10.992;2022-08-19T00:01:23;100208.44;;;21.87;100.00
23433;BME280;41331;45.412;10.992;2022-08-19T00:03:57;100215.75;;;22.08;99.12
23433;BME280;41331;45.412;10.992;2022-08-19T00:06:26;100232.38;;;22.08;98.57
23433;BME280;41331;45.412;10.992;2022-08-19T00:08:54;100225.28;;;22.11;99.72
23433;BME280;41331;45.412;10.992;2022-08-19T00:11:22;100216.19;;;22.03;100.00
23433;BME280;41331;45.412;10.992;2022-08-19T00:13:52;100194.03;;;22.03;100.00
23433;BME280;41331;45.412;10.992;2022-08-19T00:16:19;100156.78;;;22.08;100.00
23433;BME280;41331;45.412;10.992;2022-08-19T00:18:53;100110.72;;;22.21;99.26
23433;BME280;41331;45.412;10.992;2022-08-19T00:21:24;100046.00;;;22.35;97.94
23433;BME280;41331;45.412;10.992;2022-08-19T00:23:54;100012.78;;;22.31;97.17
23433;BME280;41331;45.412;10.992;2022-08-19T00:26:21;100017.53;;;22.31;97.44
23433;BME280;41331;45.412;10.992;2022-08-19T00:28:48;100046.03;;;22.31;95.36
23433;BME280;41331;45.412;10.992;2022-08-19T00:31:15;100044.78;;;22.36;95.96
23433;BME280;41331;45.412;10.992;2022-08-19T00:33:43;100010.06;;;22.28;96.84
23433;BME280;41331;45.412;10.992;2022-08-19T00:36:10;100024.28;;;22.30;94.84
23433;BME280;41331;45.412;10.992;2022-08-19T00:38:38;100114.19;;;22.29;94.61
23433;BME280;41331;45.412;10.992;2022-08-19T00:41:11;100172.34;;;22.32;95.11
23433;BME280;41331;45.412;10.992;2022-08-19T00:43:39;100177.69;;;22.19;94.92
23433;BME280;41331;45.412;10.992;2022-08-19T00:46:07;100155.56;;;22.09;95.57
23433;BME280;41331;45.412;10.992;2022-08-19T00:48:34;100146.94;;;22.03;95.21
23433;BME280;41331;45.412;10.992;2022-08-19T00:51:03;100182.50;;;22.08;95.51
23433;BME280;41331;45.412;10.992;2022-08-19T00:53:31;100204.25;;;22.13;94.35
23433;BME280;41331;45.412;10.992;2022-08-19T00:55:58;100213.66;;;22.23;94.54
23433;BME280;41331;45.412;10.992;2022-08-19T00:58:27;100209.06;;;22.43;93.14
23433;BME280;41331;45.412;10.992;2022-08-19T01:00:55;100203.50;;;22.43;91.79
23433;BME280;41331;45.412;10.992;2022-08-19T01:03:23;100204.28;;;22.44;93.28
23433;BME280;41331;45.412;10.992;2022-08-19T01:05:50;100224.06;;;22.08;97.61
23433;BME280;41331;45.412;10.992;2022-08-19T01:08:19;100241.06;;;22.14;98.41
23433;BME280;41331;45.412;10.992;2022-08-19T01:10:47;100264.53;;;21.98;100.00
23433;BME280;41331;45.412;10.992;2022-08-19T01:13:21;100267.38;;;21.91;100.00
23433;BME280;41331;45.412;10.992;2022-08-19T01:15:53;100254.09;;;21.72;100.00
23433;BME280;41331;45.412;10.992;2022-08-19T01:18:21;100231.94;;;21.72;100.00
23433;BME280;41331;45.412;10.992;2022-08-19T01:20:50;100223.75;;;21.58;100.00
23433;BME280;41331;45.412;10.992;2022-08-19T01:23:18;100225.72;;;21.57;100.00
23433;BME280;41331;45.412;10.992;2022-08-19T01:25:49;100229.28;;;21.58;100.00
23433;BME280;41331;45.412;10.992;2022-08-19T01:28:20;100262.59;;;21.47;100.00
23433;BME280;41331;45.412;10.992;2022-08-19T01:31:00;100279.72;;;21.31;100.00
23433;BME280;41331;45.412;10.992;2022-08-19T01:33:34;100275.72;;;21.36;100.00
23433;BME280;41331;45.412;10.992;2022-08-19T01:36:08;100257.03;;;21.54;100.00
23433;BME280;41331;45.412;10.992;2022-08-19T01:38:37;100241.22;;;21.48;100.00
23433;BME280;41331;45.412;10.992;2022-08-19T01:41:11;100245.28;;;21.32;100.00
23433;BME280;41331;45.412;10.992;2022-08-19T01:43:38;100245.66;;;21.38;100.00
23433;BME280;41331;45.412;10.992;2022-08-19T01:46:25;100254.41;;;21.29;100.00
23433;BME280;41331;45.412;10.992;2022-08-19T01:48:52;100274.59;;;21.23;100.00
23433;BME280;41331;45.412;10.992;2022-08-19T01:51:19;100275.41;;;21.19;100.00
23433;BME280;41331;45.412;10.992;2022-08-19T01:53:47;100267.19;;;21.09;100.00
23433;BME280;41331;45.412;10.992;2022-08-19T01:56:15;100258.88;;;21.09;100.00
23433;BME280;41331;45.412;10.992;2022-08-19T01:58:44;100242.66;;;21.07;100.00
23433;BME280;41331;45.412;10.992;2022-08-19T02:01:14;100224.00;;;21.18;100.00
23433;BME280;41331;45.412;10.992;2022-08-19T02:03:41;100203.03;;;21.25;100.00
23433;BME280;41331;45.412;10.992;2022-08-19T02:06:09;100200.66;;;21.23;100.00
23433;BME280;41331;45.412;10.992;2022-08-19T02:08:37;100203.41;;;21.30;100.00
23433;BME280;41331;45.412;10.992;2022-08-19T02:11:05;100208.94;;;21.30;100.00
23433;BME280;41331;45.412;10.992;2022-08-19T02:13:33;100201.06;;;21.21;100.00
23433;BME280;41331;45.412;10.992;2022-08-19T02:16:00;100194.75;;;21.21;100.00
23433;BME280;41331;45.412;10.992;2022-08-19T02:18:30;100194.09;;;20.99;100.00
23433;BME280;41331;45.412;10.992;2022-08-19T02:20:57;100193.69;;;21.04;100.00
23433;BME280;41331;45.412;10.992;2022-08-19T02:23:24;100178.22;;;21.10;100.00
23433;BME280;41331;45.412;10.992;2022-08-19T02:25:51;100167.81;;;21.29;100.00
23433;BME280;41331;45.412;10.992;2022-08-19T02:28:19;100158.66;;;21.39;100.00
23433;BME280;41331;45.412;10.992;2022-08-19T02:30:46;100157.13;;;21.34;100.00
23433;BME280;41331;45.412;10.992;2022-08-19T02:33:14;100136.53;;;21.39;100.00
23433;BME280;41331;45.412;10.992;2022-08-19T02:35:42;100123.47;;;21.36;100.00
23433;BME280;41331;45.412;10.992;2022-08-19T02:38:10;100119.94;;;21.28;100.00
23433;BME280;41331;45.412;10.992;2022-08-19T02:40:59;100155.47;;;21.44;100.00
23433;BME280;41331;45.412;10.992;2022-08-19T02:43:28;100180.19;;;21.10;100.00
23433;BME280;41331;45.412;10.992;2022-08-19T02:46:00;100174.69;;;21.06;100.00
23433;BME280;41331;45.412;10.992;2022-08-19T02:48:27;100184.94;;;21.09;100.00
23433;BME280;41331;45.412;10.992;2022-08-19T02:50:54;100172.28;;;21.12;100.00
23433;BME280;41331;45.412;10.992;2022-08-19T02:53:25;100158.84;;;21.10;100.00
23433;BME280;41331;45.412;10.992;2022-08-19T02:55:53;100161.72;;;20.96;100.00
23433;BME280;41331;45.412;10.992;2022-08-19T02:58:20;100181.13;;;20.89;100.00
23433;BME280;41331;45.412;10.992;2022-08-19T03:00:50;100172.16;;;20.71;100.00
23433;BME280;41331;45.412;10.992;2022-08-19T03:03:17;100164.63;;;20.67;100.00
23433;BME280;41331;45.412;10.992;2022-08-19T03:05:45;100170.59;;;20.62;100.00
23433;BME280;41331;45.412;10.992;2022-08-19T03:08:23;100173.34;;;20.66;100.00
23433;BME280;41331;45.412;10.992;2022-08-19T03:10:51;100180.44;;;20.71;100.00
23433;BME280;41331;45.412;10.992;2022-08-19T03:13:19;100195.03;;;20.71;100.00
23433;BME280;41331;45.412;10.992;2022-08-19T03:15:47;100201.38;;;20.68;100.00
23433;BME280;41331;45.412;10.992;2022-08-19T03:18:14;100201.78;;;20.70;100.00
23433;BME280;41331;45.412;10.992;2022-08-19T03:20:44;100198.59;;;20.72;100.00
23433;BME280;41331;45.412;10.992;2022-08-19T03:23:12;100195.41;;;20.77;100.00
23433;BME280;41331;45.412;10.992;2022-08-19T03:25:43;100210.44;;;20.76;100.00
23433;BME280;41331;45.412;10.992;2022-08-19T03:28:11;100221.13;;;20.70;100.00
23433;BME280;41331;45.412;10.992;2022-08-19T03:30:39;100231.47;;;20.59;100.00
23433;BME280;41331;45.412;10.992;2022-08-19T03:33:10;100226.31;;;20.61;100.00
23433;BME280;41331;45.412;10.992;2022-08-19T03:35:44;100225.13;;;20.58;100.00
23433;BME280;41331;45.412;10.992;2022-08-19T03:38:11;100221.56;;;20.58;100.00
23433;BME280;41331;45.412;10.992;2022-08-19T03:40:39;100225.88;;;20.69;100.00
23433;BME280;41331;45.412;10.992;2022-08-19T03:43:06;100219.88;;;20.78;100.00
23433;BME280;41331;45.412;10.992;2022-08-19T03:45:33;100218.72;;;20.79;100.00
23433;BME280;41331;45.412;10.992;2022-08-19T03:48:00;100222.59;;;20.92;100.00
23433;BME280;41331;45.412;10.992;2022-08-19T03:50:27;100231.28;;;20.91;100.00
23433;BME280;41331;45.412;10.992;2022-08-19T03:52:54;100239.88;;;21.14;100.00
23433;BME280;41331;45.412;10.992;2022-08-19T03:55:21;100247.69;;;21.34;95.65
23433;BME280;41331;45.412;10.992;2022-08-19T03:57:48;100256.72;;;21.41;95.54
23433;BME280;41331;45.412;10.992;2022-08-19T04:00:16;100260.78;;;21.19;100.00
23433;BME280;41331;45.412;10.992;2022-08-19T04:02:43;100262.81;;;21.08;100.00
23433;BME280;41331;45.412;10.992;2022-08-19T04:05:27;100275.97;;;20.89;100.00
23433;BME280;41331;45.412;10.992;2022-08-19T04:07:55;100275.59;;;20.84;100.00
23433;BME280;41331;45.412;10.992;2022-08-19T04:10:26;100272.06;;;20.76;100.00
23433;BME280;41331;45.412;10.992;2022-08-19T04:12:53;100289.06;;;20.75;100.00
23433;BME280;41331;45.412;10.992;2022-08-19T04:15:20;100296.91;;;20.83;100.00
23433;BME280;41331;45.412;10.992;2022-08-19T04:17:47;100313.13;;;20.78;100.00
23433;BME280;41331;45.412;10.992;2022-08-19T04:20:14;100323.81;;;20.76;100.00
23433;BME280;41331;45.412;10.992;2022-08-19T04:22:42;100336.84;;;20.79;100.00
23433;BME280;41331;45.412;10.992;2022-08-19T04:25:09;100350.28;;;20.77;100.00
23433;BME280;41331;45.412;10.992;2022-08-19T04:27:36;100361.75;;;20.75;100.00
23433;BME280;41331;45.412;10.992;2022-08-19T04:30:04;100366.88;;;20.80;100.00
23433;BME280;41331;45.412;10.992;2022-08-19T04:32:31;100375.56;;;20.82;100.00
23433;BME280;41331;45.412;10.992;2022-08-19T04:34:58;100378.69;;;20.91;100.00
23433;BME280;41331;45.412;10.992;2022-08-19T04:37:43;100377.03;;;21.08;100.00
23433;BME280;41331;45.412;10.992;2022-08-19T04:40:10;100377.84;;;21.05;100.00
23433;BME280;41331;45.412;10.992;2022-08-19T04:42:56;100375.50;;;20.93;100.00
23433;BME280;41331;45.412;10.992;2022-08-19T04:45:23;100371.97;;;20.96;100.00
23433;BME280;41331;45.412;10.992;2022-08-19T04:47:54;100361.63;;;21.11;100.00
23433;BME280;41331;45.412;10.992;2022-08-19T04:50:43;100350.63;;;20.93;100.00
23433;BME280;41331;45.412;10.992;2022-08-19T04:53:10;100346.69;;;20.94;100.00
23433;BME280;41331;45.412;10.992;2022-08-19T04:55:41;100333.59;;;21.02;100.00
23433;BME280;41331;45.412;10.992;2022-08-19T04:58:08;100335.94;;;21.10;100.00
23433;BME280;41331;45.412;10.992;2022-08-19T05:00:37;100339.88;;;21.13;100.00
23433;BME280;41331;45.412;10.992;2022-08-19T05:03:04;100335.47;;;21.23;100.00
23433;BME280;41331;45.412;10.992;2022-08-19T05:05:33;100327.59;;;21.17;100.00
23433;BME280;41331;45.412;10.992;2022-08-19T05:08:12;100320.06;;;21.25;100.00
23433;BME280;41331;45.412;10.992;2022-08-19T05:10:41;100319.66;;;21.34;100.00
23433;BME280;41331;45.412;10.992;2022-08-19T05:13:08;100302.56;;;21.46;100.00
23433;BME280;41331;45.412;10.992;2022-08-19T05:15:36;100299.78;;;21.46;100.00
23433;BME280;41331;45.412;10.992;2022-08-19T05:18:03;100289.50;;;21.46;100.00
23433;BME280;41331;45.412;10.992;2022-08-19T05:20:56;100282.31;;;21.56;100.00
23433;BME280;41331;45.412;10.992;2022-08-19T05:23:42;100279.97;;;21.55;100.00
23433;BME280;41331;45.412;10.992;2022-08-19T05:26:11;100273.91;;;21.67;100.00
23433;BME280;41331;45.412;10.992;2022-08-19T05:28:38;100277.09;;;21.65;100.00
23433;BME280;41331;45.412;10.992;2022-08-19T05:31:06;100284.19;;;21.70;100.00
23433;BME280;41331;45.412;10.992;2022-08-19T05:33:33;100289.75;;;21.66;100.00
23433;BME280;41331;45.412;10.992;2022-08-19T05:36:00;100305.59;;;21.66;100.00
23433;BME280;41331;45.412;10.992;2022-08-19T05:38:27;100302.13;;;21.48;100.00
23433;BME280;41331;45.412;10.992;2022-08-19T05:40:55;100309.72;;;21.40;100.00
23433;BME280;41331;45.412;10.992;2022-08-19T05:43:22;100306.53;;;21.45;100.00
23433;BME280;41331;45.412;10.992;2022-08-19T05:45:49;100303.78;;;21.41;100.00
23433;BME280;41331;45.412;10.992;2022-08-19T05:48:17;100303.78;;;21.41;100.00
23433;BME280;41331;45.412;10.992;2022-08-19T05:50:47;100295.03;;;21.46;100.00
23433;BME280;41331;45.412;10.992;2022-08-19T05:53:17;100297.03;;;21.42;100.00
23433;BME280;41331;45.412;10.992;2022-08-19T05:55:44;100292.28;;;21.43;100.00
23433;BME280;41331;45.412;10.992;2022-08-19T05:58:11;100285.25;;;21.31;100.00
23433;BME280;41331;45.412;10.992;2022-08-19T06:00:38;100272.19;;;21.28;100.00
23433;BME280;41331;45.412;10.992;2022-08-19T06:03:07;100269.84;;;21.30;100.00
23433;BME280;41331;45.412;10.992;2022-08-19T06:05:39;100268.63;;;21.31;100.00
23433;BME280;41331;45.412;10.992;2022-08-19T06:08:16;100263.03;;;21.38;100.00
23433;BME280;41331;45.412;10.992;2022-08-19T06:10:45;100259.91;;;21.36;100.00
23433;BME280;41331;45.412;10.992;2022-08-19T06:13:12;100258.72;;;21.37;100.00
23433;BME280;41331;45.412;10.992;2022-08-19T06:15:39;100251.16;;;21.41;100.00
23433;BME280;41331;45.412;10.992;2022-08-19T06:18:10;100245.28;;;21.36;100.00
23433;BME280;41331;45.412;10.992;2022-08-19T06:20:38;100224.84;;;21.12;100.00
23433;BME280;41331;45.412;10.992;2022-08-19T06:23:21;100220.88;;;21.16;100.00
23433;BME280;41331;45.412;10.992;2022-08-19T06:25:50;100222.00;;;21.26;100.00
23433;BME280;41331;45.412;10.992;2022-08-19T06:28:17;100219.66;;;21.17;100.00
23433;BME280;41331;45.412;10.992;2022-08-19T06:30:45;100235.44;;;21.24;100.00
23433;BME280;41331;45.412;10.992;2022-08-19T06:33:12;100247.25;;;21.28;100.00
23433;BME280;41331;45.412;10.992;2022-08-19T06:35:39;100248.19;;;21.11;100.00
23433;BME280;41331;45.412;10.992;2022-08-19T06:38:07;100268.69;;;21.13;100.00
23433;BME280;41331;45.412;10.992;2022-08-19T06:40:36;100269.91;;;21.12;100.00
23433;BME280;41331;45.412;10.992;2022-08-19T06:43:05;100275.78;;;21.18;100.00
23433;BME280;41331;45.412;10.992;2022-08-19T06:45:36;100280.94;;;21.19;100.00
23433;BME280;41331;45.412;10.992;2022-08-19T06:48:05;100270.31;;;21.14;100.00
23433;BME280;41331;45.412;10.992;2022-08-19T06:50:33;100280.19;;;21.15;100.00
23433;BME280;41331;45.412;10.992;2022-08-19T06:53:05;100280.53;;;21.17;100.00
23433;BME280;41331;45.412;10.992;2022-08-19T06:55:32;100292.03;;;21.12;100.00
23433;BME280;41331;45.412;10.992;2022-08-19T06:58:02;100292.38;;;21.25;100.00
23433;BME280;41331;45.412;10.992;2022-08-19T07:00:31;100302.72;;;21.14;100.00
23433;BME280;41331;45.412;10.992;2022-08-19T07:02:58;100305.81;;;21.23;100.00
23433;BME280;41331;45.412;10.992;2022-08-19T07:05:32;100310.19;;;21.24;100.00
23433;BME280;41331;45.412;10.992;2022-08-19T07:08:00;100306.66;;;21.13;100.00
23433;BME280;41331;45.412;10.992;2022-08-19T07:10:31;100324.09;;;21.03;100.00
23433;BME280;41331;45.412;10.992;2022-08-19T07:12:59;100327.22;;;21.12;100.00
23433;BME280;41331;45.412;10.992;2022-08-19T07:15:27;100330.06;;;20.98;100.00
23433;BME280;41331;45.412;10.992;2022-08-19T07:17:55;100325.34;;;20.94;100.00
23433;BME280;41331;45.412;10.992;2022-08-19T07:20:22;100329.72;;;20.88;100.00
23433;BME280;41331;45.412;10.992;2022-08-19T07:22:54;100334.44;;;20.91;100.00
23433;BME280;41331;45.412;10.992;2022-08-19T07:25:22;100347.88;;;20.89;100.00
23433;BME280;41331;45.412;10.992;2022-08-19T07:27:59;100343.94;;;20.87;100.00
23433;BME280;41331;45.412;10.992;2022-08-19T07:30:27;100350.28;;;20.84;100.00
23433;BME280;41331;45.412;10.992;2022-08-19T07:32:54;100349.09;;;20.81;100.00
23433;BME280;41331;45.412;10.992;2022-08-19T07:35:23;100347.88;;;20.82;100.00
23433;BME280;41331;45.412;10.992;2022-08-19T07:37:50;100350.69;;;20.75;100.00
23433;BME280;41331;45.412;10.992;2022-08-19T07:40:20;100347.53;;;20.73;100.00
23433;BME280;41331;45.412;10.992;2022-08-19T07:42:47;100346.38;;;20.63;100.00
23433;BME280;41331;45.412;10.992;2022-08-19T07:45:14;100350.66;;;20.86;100.00
23433;BME280;41331;45.412;10.992;2022-08-19T07:47:42;100344.34;;;20.78;100.00
23433;BME280;41331;45.412;10.992;2022-08-19T07:50:17;100351.88;;;20.74;100.00
23433;BME280;41331;45.412;10.992;2022-08-19T07:52:45;100347.53;;;20.69;100.00
23433;BME280;41331;45.412;10.992;2022-08-19T07:55:16;100356.63;;;20.66;100.00
23433;BME280;41331;45.412;10.992;2022-08-19T07:58:03;100344.75;;;20.80;100.00
23433;BME280;41331;45.412;10.992;2022-08-19T08:00:31;100348.31;;;20.77;100.00
23433;BME280;41331;45.412;10.992;2022-08-19T08:02:59;100345.56;;;20.70;100.00
23433;BME280;41331;45.412;10.992;2022-08-19T08:05:26;100341.59;;;20.71;100.00
23433;BME280;41331;45.412;10.992;2022-08-19T08:08:12;100344.00;;;20.62;100.00
23433;BME280;41331;45.412;10.992;2022-08-19T08:11:14;100338.50;;;20.48;100.00
23433;BME280;41331;45.412;10.992;2022-08-19T08:13:43;100331.78;;;20.38;100.00
23433;BME280;41331;45.412;10.992;2022-08-19T08:16:10;100317.56;;;20.47;100.00
23433;BME280;41331;45.412;10.992;2022-08-19T08:18:40;100304.91;;;20.46;100.00
23433;BME280;41331;45.412;10.992;2022-08-19T08:21:16;100308.47;;;20.42;100.00
23433;BME280;41331;45.412;10.992;2022-08-19T08:23:43;100305.31;;;20.37;100.00
23433;BME280;41331;45.412;10.992;2022-08-19T08:26:11;100306.91;;;20.31;100.00
23433;BME280;41331;45.412;10.992;2022-08-19T08:28:41;100314.41;;;20.48;100.00
23433;BME280;41331;45.412;10.992;2022-08-19T08:31:13;100319.53;;;20.39;100.00
23433;BME280;41331;45.412;10.992;2022-08-19T08:33:41;100324.28;;;20.38;100.00
23433;BME280;41331;45.412;10.992;2022-08-19T08:36:10;100343.22;;;20.43;100.00
23433;BME280;41331;45.412;10.992;2022-08-19T08:38:38;100349.53;;;20.37;100.00
23433;BME280;41331;45.412;10.992;2022-08-19T08:41:26;100356.66;;;20.45;100.00
23433;BME280;41331;45.412;10.992;2022-08-19T08:43:55;100363.75;;;20.42;100.00
23433;BME280;41331;45.412;10.992;2022-08-19T08:51:48;100415.88;;;20.23;100.00
23433;BME280;41331;45.412;10.992;2022-08-19T08:54:29;100415.09;;;20.26;100.00
23433;BME280;41331;45.412;10.992;2022-08-19T08:56:57;100431.28;;;20.27;100.00
23433;BME280;41331;45.412;10.992;2022-08-19T08:59:28;100434.06;;;20.24;100.00
23433;BME280;41331;45.412;10.992;2022-08-19T09:01:58;100423.75;;;20.17;100.00
23433;BME280;41331;45.412;10.992;2022-08-19T09:04:25;100418.63;;;20.12;100.00
23433;BME280;41331;45.412;10.992;2022-08-19T09:09:27;100429.69;;;20.23;100.00
23433;BME280;41331;45.412;10.992;2022-08-19T09:17:16;100398.50;;;20.01;100.00
23433;BME280;41331;45.412;10.992;2022-08-19T09:19:55;100392.59;;;20.06;100.00
23433;BME280;41331;45.412;10.992;2022-08-19T09:22:23;100388.63;;;19.92;100.00
23433;BME280;41331;45.412;10.992;2022-08-19T09:24:53;100388.22;;;19.98;100.00
23433;BME280;41331;45.412;10.992;2022-08-19T09:27:22;100371.66;;;20.01;100.00
23433;BME280;41331;45.412;10.992;2022-08-19T09:30:13;100371.28;;;20.06;100.00
23433;BME280;41331;45.412;10.992;2022-08-19T09:32:41;100366.16;;;20.05;100.00
23433;BME280;41331;45.412;10.992;2022-08-19T09:35:09;100355.09;;;20.15;100.00
23433;BME280;41331;45.412;10.992;2022-08-19T09:37:38;100355.50;;;20.03;100.00
23433;BME280;41331;45.412;10.992;2022-08-19T09:40:06;100344.81;;;20.02;100.00
23433;BME280;41331;45.412;10.992;2022-08-19T09:42:35;100339.31;;;19.98;100.00
23433;BME280;41331;45.412;10.992;2022-08-19T09:45:03;100336.56;;;19.98;100.00
23433;BME280;41331;45.412;10.992;2022-08-19T09:47:36;100327.84;;;20.10;100.00
23433;BME280;41331;45.412;10.992;2022-08-19T09:50:07;100328.25;;;20.05;100.00
23433;BME280;41331;45.412;10.992;2022-08-19T09:52:36;100320.75;;;20.16;100.00
23433;BME280;41331;45.412;10.992;2022-08-19T09:55:05;100316.41;;;20.19;100.00
23433;BME280;41331;45.412;10.992;2022-08-19T09:57:34;100315.63;;;20.15;100.00
23433;BME280;41331;45.412;10.992;2022-08-19T10:00:02;100307.69;;;20.31;100.00
23433;BME280;41331;45.412;10.992;2022-08-19T10:02:33;100294.66;;;20.35;100.00
23433;BME280;41331;45.412;10.992;2022-08-19T10:05:00;100293.84;;;20.42;100.00
23433;BME280;41331;45.412;10.992;2022-08-19T10:07:52;100286.75;;;20.44;100.00
23433;BME280;41331;45.412;10.992;2022-08-19T10:10:22;100289.84;;;20.68;100.00
23433;BME280;41331;45.412;10.992;2022-08-19T10:12:50;100280.03;;;20.60;100.00
23433;BME280;41331;45.412;10.992;2022-08-19T10:15:18;100293.03;;;20.63;100.00
23433;BME280;41331;45.412;10.992;2022-08-19T10:17:55;100301.69;;;20.76;100.00
23433;BME280;41331;45.412;10.992;2022-08-19T10:20:24;100300.50;;;20.73;100.00
23433;BME280;41331;45.412;10.992;2022-08-19T10:22:52;100300.13;;;20.71;100.00
23433;BME280;41331;45.412;10.992;2022-08-19T10:25:19;100310.00;;;20.76;100.00
23433;BME280;41331;45.412;10.992;2022-08-19T10:27:46;100302.09;;;20.74;100.00
23433;BME280;41331;45.412;10.992;2022-08-19T10:30:17;100307.97;;;20.94;100.00
23433;BME280;41331;45.412;10.992;2022-08-19T10:32:46;100307.50;;;21.03;100.00
23433;BME280;41331;45.412;10.992;2022-08-19T10:35:13;100300.38;;;21.05;100.00
23433;BME280;41331;45.412;10.992;2022-08-19T10:37:47;100307.44;;;21.13;100.00
23433;BME280;41331;45.412;10.992;2022-08-19T10:40:23;100305.84;;;21.19;100.00
23433;BME280;41331;45.412;10.992;2022-08-19T10:42:50;100300.59;;;21.43;100.00
23433;BME280;41331;45.412;10.992;2022-08-19T10:45:18;100299.78;;;21.46;100.00
23433;BME280;41331;45.412;10.992;2022-08-19T10:47:45;100293.13;;;21.36;100.00
23433;BME280;41331;45.412;10.992;2022-08-19T10:50:13;100284.06;;;21.29;100.00
23433;BME280;41331;45.412;10.992;2022-08-19T10:53:02;100283.50;;;21.55;100.00
23433;BME280;41331;45.412;10.992;2022-08-19T10:55:35;100275.19;;;21.59;100.00
23433;BME280;41331;45.412;10.992;2022-08-19T10:58:21;100282.13;;;21.78;100.00
23433;BME280;41331;45.412;10.992;2022-08-19T11:00:55;100282.81;;;21.92;100.00
23433;BME280;41331;45.412;10.992;2022-08-19T11:03:23;100278.28;;;22.16;100.00
23433;BME280;41331;45.412;10.992;2022-08-19T11:06:04;100277.72;;;22.32;100.00
23433;BME280;41331;45.412;10.992;2022-08-19T11:08:32;100289.09;;;22.41;100.00
23433;BME280;41331;45.412;10.992;2022-08-19T11:11:02;100289.22;;;22.31;100.00
23433;BME280;41331;45.412;10.992;2022-08-19T11:13:31;100300.28;;;22.34;100.00
23433;BME280;41331;45.412;10.992;2022-08-19T11:16:03;100298.34;;;22.28;100.00
23433;BME280;41331;45.412;10.992;2022-08-19T11:18:36;100293.50;;;23.07;98.37
23433;BME280;41331;45.412;10.992;2022-08-19T11:21:07;100301.69;;;23.45;96.33
23433;BME280;41331;45.412;10.992;2022-08-19T11:23:35;100287.53;;;24.33;92.87
23433;BME280;41331;45.412;10.992;2022-08-19T11:26:02;100292.00;;;24.07;91.60
23433;BME280;41331;45.412;10.992;2022-08-19T11:28:30;100292.66;;;23.91;92.71
23433;BME280;41331;45.412;10.992;2022-08-19T11:30:57;100292.78;;;24.08;91.30
23433;BME280;41331;45.412;10.992;2022-08-19T11:33:24;100302.44;;;24.23;90.24
23433;BME280;41331;45.412;10.992;2022-08-19T11:35:53;100302.00;;;23.77;89.34
23433;BME280;41331;45.412;10.992;2022-08-19T11:38:21;100301.78;;;23.92;92.23
23433;BME280;41331;45.412;10.992;2022-08-19T11:40:55;100297.13;;;24.09;92.96
23433;BME280;41331;45.412;10.992;2022-08-19T11:43:22;100289.50;;;24.13;88.43
23433;BME280;41331;45.412;10.992;2022-08-19T11:45:49;100288.72;;;23.89;90.16
23433;BME280;41331;45.412;10.992;2022-08-19T11:48:16;100301.00;;;23.91;92.11
23433;BME280;41331;45.412;10.992;2022-08-19T11:50:44;100312.94;;;23.65;92.04
23433;BME280;41331;45.412;10.992;2022-08-19T11:53:11;100314.81;;;23.71;92.13
23433;BME280;41331;45.412;10.992;2022-08-19T11:55:38;100314.34;;;23.76;94.08
23433;BME280;41331;45.412;10.992;2022-08-19T11:58:10;100302.75;;;24.05;90.39
23433;BME280;41331;45.412;10.992;2022-08-19T12:00:45;100309.94;;;24.26;90.29
23433;BME280;41331;45.412;10.992;2022-08-19T12:03:12;100307.16;;;24.26;88.60
23433;BME280;41331;45.412;10.992;2022-08-19T12:05:40;100306.19;;;24.36;91.15
23433;BME280;41331;45.412;10.992;2022-08-19T12:08:07;100307.78;;;24.57;88.12
23433;BME280;41331;45.412;10.992;2022-08-19T12:10:35;100311.13;;;24.48;87.15
23433;BME280;41331;45.412;10.992;2022-08-19T12:13:02;100312.97;;;24.75;85.23
23433;BME280;41331;45.412;10.992;2022-08-19T12:15:30;100302.22;;;24.77;83.75
23433;BME280;41331;45.412;10.992;2022-08-19T12:18:03;100294.09;;;24.66;85.68
23433;BME280;41331;45.412;10.992;2022-08-19T12:20:32;100297.16;;;24.52;86.98
23433;BME280;41331;45.412;10.992;2022-08-19T12:23:02;100292.03;;;24.90;84.88
23433;BME280;41331;45.412;10.992;2022-08-19T12:25:30;100293.22;;;24.89;84.17
23433;BME280;41331;45.412;10.992;2022-08-19T12:27:58;100283.78;;;25.03;81.42
23433;BME280;41331;45.412;10.992;2022-08-19T12:30:26;100276.44;;;25.13;83.56
23433;BME280;41331;45.412;10.992;2022-08-19T12:32:53;100273.75;;;24.69;82.80
23433;BME280;41331;45.412;10.992;2022-08-19T12:35:20;100282.69;;;24.61;81.48
23433;BME280;41331;45.412;10.992;2022-08-19T12:37:48;100281.25;;;24.29;83.93
23433;BME280;41331;45.412;10.992;2022-08-19T12:40:23;100289.63;;;24.06;85.95
23433;BME280;41331;45.412;10.992;2022-08-19T12:42:53;100284.47;;;24.04;85.58
23433;BME280;41331;45.412;10.992;2022-08-19T12:45:20;100277.31;;;23.83;85.09
23433;BME280;41331;45.412;10.992;2022-08-19T12:47:47;100278.31;;;23.93;85.25
23433;BME280;41331;45.412;10.992;2022-08-19T12:50:15;100276.75;;;23.92;83.87
23433;BME280;41331;45.412;10.992;2022-08-19T12:52:42;100282.75;;;23.90;85.26
23433;BME280;41331;45.412;10.992;2022-08-19T12:55:10;100282.75;;;23.90;84.11
23433;BME280;41331;45.412;10.992;2022-08-19T12:57:38;100287.19;;;23.84;83.06
23433;BME280;41331;45.412;10.992;2022-08-19T13:00:07;100294.03;;;23.80;84.06